createdAt,value
2017-12-16T00:01:55.469Z,10.43
2017-12-16T00:04:23.818Z,8.20
2017-12-16T00:06:51.294Z,11.67
2017-12-16T00:09:18.861Z,16.17
2017-12-16T00:11:47.135Z,16.53
2017-12-16T00:14:15.406Z,14.40
2017-12-16T00:16:42.966Z,15.00
2017-12-16T00:19:11.247Z,24.53
2017-12-16T00:21:38.800Z,22.73
2017-12-16T00:24:07.080Z,18.57
2017-12-16T00:26:34.644Z,17.80
2017-12-16T00:29:02.156Z,20.23
2017-12-16T00:31:29.676Z,19.00
2017-12-16T00:33:57.256Z,23.90
2017-12-16T00:36:24.776Z,17.73
2017-12-16T00:38:52.325Z,18.70
2017-12-16T00:41:19.853Z,23.37
2017-12-16T00:43:47.431Z,23.77
2017-12-16T00:46:15.722Z,17.10
2017-12-16T00:48:43.268Z,18.90
2017-12-16T00:51:11.565Z,16.67
2017-12-16T00:53:39.395Z,18.57
2017-12-16T00:56:07.698Z,17.23
2017-12-16T00:58:35.214Z,20.93
2017-12-16T01:01:02.748Z,14.77
2017-12-16T01:03:30.299Z,17.63
2017-12-16T01:05:57.821Z,20.70
2017-12-16T01:08:25.341Z,19.40
2017-12-16T01:10:52.882Z,25.33
2017-12-16T01:13:20.414Z,22.97
2017-12-16T01:15:47.975Z,21.10
2017-12-16T01:18:15.515Z,16.90
2017-12-16T01:20:42.992Z,23.30
2017-12-16T01:23:10.577Z,16.20
2017-12-16T01:25:38.093Z,17.23
2017-12-16T01:28:05.655Z,20.50
2017-12-16T01:30:33.173Z,19.80
2017-12-16T01:33:01.484Z,19.90
2017-12-16T01:35:40.939Z,24.00
2017-12-16T01:41:08.907Z,19.20
2017-12-16T01:43:36.475Z,19.63
2017-12-16T01:46:04.011Z,26.30
2017-12-16T01:48:31.529Z,20.47
2017-12-16T01:50:59.055Z,17.80
2017-12-16T01:53:28.545Z,19.47
2017-12-16T01:55:56.042Z,20.33
2017-12-16T01:58:24.389Z,26.30
2017-12-16T02:00:51.916Z,27.93
2017-12-16T02:03:19.467Z,20.73
2017-12-16T02:05:47.754Z,23.37
2017-12-16T02:08:15.298Z,24.57
2017-12-16T02:10:43.596Z,29.13
2017-12-16T02:13:11.114Z,23.17
2017-12-16T02:15:39.454Z,21.30
2017-12-16T02:18:07.984Z,23.90
2017-12-16T02:20:36.267Z,23.17
2017-12-16T02:23:03.842Z,22.97
2017-12-16T02:25:31.354Z,27.47
2017-12-16T02:27:58.900Z,25.10
2017-12-16T02:30:26.409Z,21.73
2017-12-16T02:32:53.959Z,22.07
2017-12-16T02:35:21.486Z,21.53
2017-12-16T02:37:49.040Z,23.30
2017-12-16T02:40:16.558Z,26.27
2017-12-16T02:42:44.632Z,22.33
2017-12-16T02:45:12.140Z,24.07
2017-12-16T02:47:39.695Z,24.10
2017-12-16T02:50:07.980Z,29.37
2017-12-16T02:52:36.288Z,29.23
2017-12-16T02:55:03.813Z,30.53
2017-12-16T02:57:31.410Z,26.50
2017-12-16T02:59:58.935Z,23.07
2017-12-16T03:02:27.219Z,26.47
2017-12-16T03:04:54.780Z,30.73
2017-12-16T03:07:23.135Z,23.17
2017-12-16T03:09:50.699Z,29.93
2017-12-16T03:12:18.977Z,33.53
2017-12-16T03:14:46.548Z,28.43
2017-12-16T03:17:14.059Z,32.33
2017-12-16T03:19:41.584Z,33.20
2017-12-16T03:22:09.144Z,30.40
2017-12-16T03:24:36.657Z,31.30
2017-12-16T03:27:04.942Z,37.60
2017-12-16T03:29:32.471Z,30.30
2017-12-16T03:31:59.980Z,35.80
2017-12-16T03:34:27.519Z,32.60
2017-12-16T03:36:55.040Z,37.30
2017-12-16T03:39:22.571Z,43.80
2017-12-16T03:41:50.644Z,44.83
2017-12-16T03:44:18.981Z,42.00
2017-12-16T03:46:46.495Z,47.20
2017-12-16T03:49:14.896Z,45.30
2017-12-16T03:51:42.455Z,55.67
2017-12-16T03:54:11.317Z,55.60
2017-12-16T03:56:38.870Z,45.90
2017-12-16T03:59:06.422Z,54.03
2017-12-16T04:01:33.957Z,52.57
2017-12-16T04:04:01.487Z,50.67
2017-12-16T04:06:29.049Z,53.47
2017-12-16T04:08:56.914Z,68.63
2017-12-16T04:11:24.425Z,57.33
2017-12-16T04:13:51.951Z,72.17
2017-12-16T04:16:19.501Z,62.03
2017-12-16T04:18:47.065Z,61.23
2017-12-16T04:21:14.619Z,62.20
2017-12-16T04:23:42.144Z,78.57
2017-12-16T04:26:10.421Z,73.53
2017-12-16T04:28:38.727Z,82.10
2017-12-16T04:31:06.255Z,77.80
2017-12-16T04:33:33.808Z,106.57
2017-12-16T04:36:02.086Z,80.20
2017-12-16T04:38:29.660Z,91.63
2017-12-16T04:40:57.177Z,105.50
2017-12-16T04:43:25.611Z,90.57
2017-12-16T04:45:53.113Z,96.80
2017-12-16T04:48:21.437Z,91.37
2017-12-16T04:50:49.105Z,102.97
2017-12-16T04:53:16.615Z,92.50
2017-12-16T04:55:44.158Z,108.20
2017-12-16T04:58:11.674Z,99.23
2017-12-16T05:00:39.964Z,90.43
2017-12-16T05:03:07.484Z,92.70
2017-12-16T05:05:35.041Z,88.37
2017-12-16T05:08:03.405Z,83.53
2017-12-16T05:10:31.686Z,69.30
2017-12-16T05:12:59.962Z,93.40
2017-12-16T05:15:28.301Z,74.27
2017-12-16T05:17:56.632Z,78.27
2017-12-16T05:20:24.153Z,72.87
2017-12-16T05:22:52.439Z,67.30
2017-12-16T05:25:20.774Z,74.47
2017-12-16T05:27:48.290Z,77.00
2017-12-16T05:30:15.820Z,90.30
2017-12-16T05:32:43.380Z,82.50
2017-12-16T05:35:10.912Z,79.40
2017-12-16T05:37:38.468Z,76.57
2017-12-16T05:40:05.986Z,72.70
2017-12-16T05:42:33.503Z,68.00
2017-12-16T05:45:01.053Z,71.73
2017-12-16T05:47:28.569Z,77.97
2017-12-16T05:49:56.114Z,83.17
2017-12-16T05:52:23.634Z,78.47
2017-12-16T05:54:51.969Z,79.30
2017-12-16T05:57:19.482Z,85.53
2017-12-16T05:59:47.013Z,79.53
2017-12-16T06:02:14.737Z,86.53
2017-12-16T06:04:42.273Z,100.00
2017-12-16T06:07:09.855Z,89.20
2017-12-16T06:09:37.363Z,86.07
2017-12-16T06:12:04.875Z,84.17
2017-12-16T06:14:32.488Z,81.10
2017-12-16T06:17:00.095Z,91.30
2017-12-16T06:19:27.632Z,78.03
2017-12-16T06:21:55.108Z,79.80
2017-12-16T06:24:22.689Z,71.87
2017-12-16T06:26:50.246Z,94.03
2017-12-16T06:29:17.749Z,78.80
2017-12-16T06:31:45.295Z,77.63
2017-12-16T06:34:13.959Z,85.23
2017-12-16T06:36:41.502Z,87.73
2017-12-16T06:39:09.015Z,94.20
2017-12-16T06:41:36.570Z,74.03
2017-12-16T06:44:04.088Z,83.97
2017-12-16T06:46:31.605Z,74.67
2017-12-16T06:48:59.475Z,75.97
2017-12-16T06:51:26.988Z,74.87
2017-12-16T06:53:57.588Z,84.07
2017-12-16T06:56:25.189Z,79.37
2017-12-16T06:58:54.251Z,83.10
2017-12-16T07:01:21.783Z,74.37
2017-12-16T07:03:49.321Z,84.30
2017-12-16T07:06:16.861Z,81.83
2017-12-16T07:08:44.435Z,73.30
2017-12-16T07:11:11.952Z,56.80
2017-12-16T07:13:40.264Z,66.33
2017-12-16T07:16:08.304Z,76.37
2017-12-16T07:18:36.642Z,67.70
2017-12-16T07:21:04.168Z,59.53
2017-12-16T07:23:31.750Z,55.80
2017-12-16T07:25:59.287Z,62.97
2017-12-16T07:28:26.892Z,66.27
2017-12-16T07:30:54.468Z,76.03
2017-12-16T07:33:22.748Z,64.47
2017-12-16T07:35:51.071Z,62.17
2017-12-16T07:38:18.596Z,65.90
2017-12-16T07:40:46.113Z,58.57
2017-12-16T07:43:13.671Z,60.60
2017-12-16T07:45:41.183Z,51.47
2017-12-16T07:48:08.712Z,58.10
2017-12-16T07:50:37.040Z,53.90
2017-12-16T07:53:04.548Z,53.27
2017-12-16T07:55:32.814Z,54.03
2017-12-16T07:58:01.139Z,58.77
2017-12-16T08:00:28.648Z,54.80
2017-12-16T08:02:56.928Z,48.43
2017-12-16T08:05:25.246Z,67.23
2017-12-16T08:07:52.798Z,63.80
2017-12-16T08:10:20.323Z,63.30
2017-12-16T08:12:47.836Z,56.00
2017-12-16T08:15:15.414Z,56.03
2017-12-16T08:17:50.364Z,55.27
2017-12-16T08:20:18.719Z,54.73
2017-12-16T08:22:46.207Z,52.90
2017-12-16T08:25:13.749Z,60.37
2017-12-16T08:27:42.073Z,56.50
2017-12-16T08:30:09.615Z,52.87
2017-12-16T08:32:37.173Z,44.23
2017-12-16T08:35:04.680Z,64.03
2017-12-16T08:37:32.199Z,106.80
2017-12-16T08:39:59.743Z,80.03
2017-12-16T08:42:27.257Z,52.23
2017-12-16T08:44:55.568Z,53.87
2017-12-16T08:47:23.088Z,55.07
2017-12-16T08:49:50.641Z,68.27
2017-12-16T08:52:18.152Z,54.23
2017-12-16T08:54:45.747Z,55.27
2017-12-16T08:57:13.294Z,56.10
2017-12-16T08:59:40.841Z,50.53
2017-12-16T09:02:08.422Z,51.23
2017-12-16T09:04:35.948Z,39.47
2017-12-16T09:07:03.462Z,54.57
2017-12-16T09:09:31.779Z,43.17
2017-12-16T09:11:59.299Z,45.10
2017-12-16T09:14:27.646Z,50.40
2017-12-16T09:16:55.250Z,50.93
2017-12-16T09:19:22.769Z,54.07
2017-12-16T09:21:50.286Z,50.83
2017-12-16T09:24:29.587Z,46.57
2017-12-16T09:26:57.151Z,46.30
2017-12-16T09:29:24.698Z,48.80
2017-12-16T09:31:52.234Z,43.87
2017-12-16T09:34:19.786Z,42.57
2017-12-16T09:36:47.300Z,45.10
2017-12-16T09:39:14.819Z,52.43
2017-12-16T09:41:43.139Z,47.53
2017-12-16T09:44:10.652Z,41.50
2017-12-16T09:46:38.940Z,42.27
2017-12-16T09:49:07.240Z,36.47
2017-12-16T09:51:34.774Z,41.77
2017-12-16T09:54:03.069Z,40.73
2017-12-16T09:56:30.583Z,38.37
2017-12-16T09:58:58.134Z,40.40
2017-12-16T10:01:26.305Z,37.70
2017-12-16T10:03:53.831Z,32.43
2017-12-16T10:06:21.398Z,35.60
2017-12-16T10:08:48.911Z,44.47
2017-12-16T10:11:16.424Z,50.17
2017-12-16T10:13:43.968Z,73.60
2017-12-16T10:16:11.476Z,39.43
2017-12-16T10:18:39.756Z,54.03
2017-12-16T10:21:08.900Z,36.10
2017-12-16T10:23:38.043Z,28.00
2017-12-16T10:26:11.372Z,48.93
2017-12-16T10:28:38.945Z,27.93
2017-12-16T10:31:06.488Z,28.27
2017-12-16T10:33:35.071Z,35.40
2017-12-16T10:36:02.631Z,22.80
2017-12-16T10:38:30.156Z,25.53
2017-12-16T10:40:57.922Z,25.57
2017-12-16T10:43:25.443Z,22.20
2017-12-16T10:45:53.969Z,25.67
2017-12-16T10:48:21.781Z,33.20
2017-12-16T10:50:49.289Z,16.80
2017-12-16T10:53:17.929Z,24.10
2017-12-16T10:55:45.527Z,29.20
2017-12-16T10:58:13.081Z,19.97
2017-12-16T11:00:41.259Z,26.53
2017-12-16T11:03:09.105Z,22.53
2017-12-16T11:05:36.701Z,17.90
2017-12-16T11:08:04.222Z,17.53
2017-12-16T11:10:32.601Z,23.10
2017-12-16T11:13:00.874Z,16.10
2017-12-16T11:15:29.200Z,28.63
2017-12-16T11:17:56.898Z,20.90
2017-12-16T11:20:25.213Z,16.00
2017-12-16T11:22:52.751Z,18.93
2017-12-16T11:25:21.027Z,14.03
2017-12-16T11:27:48.604Z,18.53
2017-12-16T11:30:16.147Z,17.10
2017-12-16T11:32:43.817Z,16.23
2017-12-16T11:35:11.368Z,51.00
2017-12-16T11:37:40.268Z,27.93
2017-12-16T11:40:07.836Z,65.90
2017-12-16T11:42:36.329Z,27.47
2017-12-16T11:45:03.907Z,17.90
2017-12-16T11:47:31.436Z,14.37
2017-12-16T11:49:58.964Z,20.20
2017-12-16T11:52:26.544Z,18.60
2017-12-16T11:54:54.055Z,30.33
2017-12-16T11:57:22.352Z,14.53
2017-12-16T11:59:49.890Z,13.33
2017-12-16T12:02:17.450Z,13.97
2017-12-16T12:04:45.079Z,17.00
2017-12-16T12:07:12.691Z,12.53
2017-12-16T12:09:41.134Z,14.37
2017-12-16T12:12:11.466Z,14.33
2017-12-16T12:14:38.988Z,11.47
2017-12-16T12:17:08.471Z,12.40
2017-12-16T12:19:59.278Z,8.30
2017-12-16T12:22:27.042Z,7.10
2017-12-16T12:24:59.026Z,7.63
2017-12-16T12:27:27.725Z,9.13
2017-12-16T12:29:55.832Z,8.50
2017-12-16T12:41:21.152Z,5.90
2017-12-16T12:43:55.231Z,6.13
2017-12-16T12:46:25.794Z,9.27
2017-12-16T12:49:10.310Z,11.87
2017-12-16T12:51:37.849Z,8.50
2017-12-16T12:54:11.277Z,15.20
2017-12-16T12:56:38.896Z,9.97
2017-12-16T12:59:07.193Z,11.97
2017-12-16T13:01:36.083Z,14.23
2017-12-16T13:04:03.649Z,12.27
2017-12-16T13:06:31.248Z,11.40
2017-12-16T13:09:05.764Z,12.37
2017-12-16T13:11:34.207Z,10.43
2017-12-16T13:14:01.786Z,12.70
2017-12-16T13:22:14.678Z,18.07
2017-12-16T13:27:40.170Z,13.63
